sensor_id;sensor_type;location;lat;lon;timestamp;P1;durP1;ratioP1;P2;durP2;ratioP2
20844;SDS011;10583;49.084;8.646;2022-07-23T00:00:00;8.05;;;8.05;;
20844;SDS011;10583;49.084;8.646;2022-07-23T00:02:27;7.72;;;7.72;;
20844;SDS011;10583;49.084;8.646;2022-07-23T00:04:54;7.85;;;7.85;;
20844;SDS011;10583;49.084;8.646;2022-07-23T00:07:21;8.82;;;8.82;;
20844;SDS011;10583;49.084;8.646;2022-07-23T00:09:49;7.85;;;7.85;;
20844;SDS011;10583;49.084;8.646;2022-07-23T00:12:15;7.80;;;7.80;;
20844;SDS011;10583;49.084;8.646;2022-07-23T00:14:42;8.20;;;8.20;;
20844;SDS011;10583;49.084;8.646;2022-07-23T00:17:09;7.32;;;7.32;;
20844;SDS011;10583;49.084;8.646;2022-07-23T00:19:36;8.55;;;8.55;;
20844;SDS011;10583;49.084;8.646;2022-07-23T00:22:03;7.30;;;7.30;;
20844;SDS011;10583;49.084;8.646;2022-07-23T00:24:30;8.75;;;8.75;;
20844;SDS011;10583;49.084;8.646;2022-07-23T00:26:58;8.32;;;8.32;;
20844;SDS011;10583;49.084;8.646;2022-07-23T00:29:25;7.80;;;7.80;;
20844;SDS011;10583;49.084;8.646;2022-07-23T00:31:52;8.30;;;8.30;;
20844;SDS011;10583;49.084;8.646;2022-07-23T00:34:18;7.80;;;7.80;;
20844;SDS011;10583;49.084;8.646;2022-07-23T00:36:45;8.20;;;8.20;;
20844;SDS011;10583;49.084;8.646;2022-07-23T00:39:11;8.15;;;8.15;;
20844;SDS011;10583;49.084;8.646;2022-07-23T00:41:38;7.60;;;7.60;;
20844;SDS011;10583;49.084;8.646;2022-07-23T00:44:16;7.28;;;7.28;;
20844;SDS011;10583;49.084;8.646;2022-07-23T00:46:45;8.23;;;8.23;;
20844;SDS011;10583;49.084;8.646;2022-07-23T00:49:12;7.70;;;7.70;;
20844;SDS011;10583;49.084;8.646;2022-07-23T00:51:39;7.63;;;7.63;;
20844;SDS011;10583;49.084;8.646;2022-07-23T00:54:06;7.05;;;7.05;;
20844;SDS011;10583;49.084;8.646;2022-07-23T00:56:33;7.30;;;7.30;;
20844;SDS011;10583;49.084;8.646;2022-07-23T00:59:00;6.95;;;6.95;;
20844;SDS011;10583;49.084;8.646;2022-07-23T01:01:29;7.38;;;7.38;;
20844;SDS011;10583;49.084;8.646;2022-07-23T01:03:56;7.03;;;7.03;;
20844;SDS011;10583;49.084;8.646;2022-07-23T01:06:22;7.95;;;7.95;;
20844;SDS011;10583;49.084;8.646;2022-07-23T01:08:49;7.35;;;7.35;;
20844;SDS011;10583;49.084;8.646;2022-07-23T01:11:16;7.22;;;7.22;;
20844;SDS011;10583;49.084;8.646;2022-07-23T01:13:44;7.45;;;7.45;;
20844;SDS011;10583;49.084;8.646;2022-07-23T01:16:10;7.20;;;7.20;;
20844;SDS011;10583;49.084;8.646;2022-07-23T01:18:39;6.97;;;6.97;;
20844;SDS011;10583;49.084;8.646;2022-07-23T01:21:05;6.78;;;6.78;;
20844;SDS011;10583;49.084;8.646;2022-07-23T01:23:34;6.75;;;6.75;;
20844;SDS011;10583;49.084;8.646;2022-07-23T01:26:00;7.05;;;7.05;;
20844;SDS011;10583;49.084;8.646;2022-07-23T01:28:27;6.65;;;6.65;;
20844;SDS011;10583;49.084;8.646;2022-07-23T01:30:54;6.85;;;6.85;;
20844;SDS011;10583;49.084;8.646;2022-07-23T01:33:20;6.68;;;6.68;;
20844;SDS011;10583;49.084;8.646;2022-07-23T01:35:47;6.82;;;6.82;;
20844;SDS011;10583;49.084;8.646;2022-07-23T01:38:14;6.78;;;6.78;;
20844;SDS011;10583;49.084;8.646;2022-07-23T01:40:42;7.30;;;7.30;;
20844;SDS011;10583;49.084;8.646;2022-07-23T01:43:11;7.25;;;7.25;;
20844;SDS011;10583;49.084;8.646;2022-07-23T01:45:38;6.70;;;6.70;;
20844;SDS011;10583;49.084;8.646;2022-07-23T01:48:05;7.43;;;7.43;;
20844;SDS011;10583;49.084;8.646;2022-07-23T01:50:32;7.20;;;7.20;;
20844;SDS011;10583;49.084;8.646;2022-07-23T01:52:59;7.63;;;7.63;;
20844;SDS011;10583;49.084;8.646;2022-07-23T01:55:26;7.55;;;7.55;;
20844;SDS011;10583;49.084;8.646;2022-07-23T01:57:54;6.95;;;6.95;;
20844;SDS011;10583;49.084;8.646;2022-07-23T02:00:20;7.25;;;7.25;;
20844;SDS011;10583;49.084;8.646;2022-07-23T02:02:47;7.50;;;7.50;;
20844;SDS011;10583;49.084;8.646;2022-07-23T02:05:14;7.22;;;7.22;;
20844;SDS011;10583;49.084;8.646;2022-07-23T02:07:41;7.03;;;7.03;;
20844;SDS011;10583;49.084;8.646;2022-07-23T02:10:08;7.20;;;7.20;;
20844;SDS011;10583;49.084;8.646;2022-07-23T02:12:34;7.22;;;7.22;;
20844;SDS011;10583;49.084;8.646;2022-07-23T02:15:03;7.05;;;7.05;;
20844;SDS011;10583;49.084;8.646;2022-07-23T02:17:30;7.88;;;7.88;;
20844;SDS011;10583;49.084;8.646;2022-07-23T02:19:57;7.18;;;7.18;;
20844;SDS011;10583;49.084;8.646;2022-07-23T02:22:23;7.40;;;7.40;;
20844;SDS011;10583;49.084;8.646;2022-07-23T02:24:50;7.55;;;7.55;;
20844;SDS011;10583;49.084;8.646;2022-07-23T02:27:17;7.43;;;7.43;;
20844;SDS011;10583;49.084;8.646;2022-07-23T02:29:43;7.35;;;7.35;;
20844;SDS011;10583;49.084;8.646;2022-07-23T02:32:11;7.82;;;7.82;;
20844;SDS011;10583;49.084;8.646;2022-07-23T02:34:38;7.55;;;7.55;;
20844;SDS011;10583;49.084;8.646;2022-07-23T02:37:04;6.93;;;6.93;;
20844;SDS011;10583;49.084;8.646;2022-07-23T02:39:33;7.28;;;7.28;;
20844;SDS011;10583;49.084;8.646;2022-07-23T02:42:00;7.35;;;7.35;;
20844;SDS011;10583;49.084;8.646;2022-07-23T02:44:27;7.47;;;7.47;;
20844;SDS011;10583;49.084;8.646;2022-07-23T02:46:54;7.80;;;7.80;;
20844;SDS011;10583;49.084;8.646;2022-07-23T02:49:23;8.05;;;8.05;;
20844;SDS011;10583;49.084;8.646;2022-07-23T02:51:49;7.30;;;7.30;;
20844;SDS011;10583;49.084;8.646;2022-07-23T02:54:16;7.65;;;7.65;;
20844;SDS011;10583;49.084;8.646;2022-07-23T02:56:43;7.20;;;7.20;;
20844;SDS011;10583;49.084;8.646;2022-07-23T02:59:09;7.40;;;7.40;;
20844;SDS011;10583;49.084;8.646;2022-07-23T03:01:36;7.30;;;7.30;;
20844;SDS011;10583;49.084;8.646;2022-07-23T03:04:03;7.95;;;7.95;;
20844;SDS011;10583;49.084;8.646;2022-07-23T03:06:31;7.47;;;7.47;;
20844;SDS011;10583;49.084;8.646;2022-07-23T03:08:58;7.00;;;7.00;;
20844;SDS011;10583;49.084;8.646;2022-07-23T03:11:25;7.70;;;7.70;;
20844;SDS011;10583;49.084;8.646;2022-07-23T03:13:51;7.82;;;7.82;;
20844;SDS011;10583;49.084;8.646;2022-07-23T03:16:19;7.75;;;7.75;;
20844;SDS011;10583;49.084;8.646;2022-07-23T03:18:45;8.18;;;8.18;;
20844;SDS011;10583;49.084;8.646;2022-07-23T03:21:12;8.85;;;8.85;;
20844;SDS011;10583;49.084;8.646;2022-07-23T03:23:40;8.15;;;8.15;;
20844;SDS011;10583;49.084;8.646;2022-07-23T03:26:07;8.05;;;8.05;;
20844;SDS011;10583;49.084;8.646;2022-07-23T03:28:34;8.23;;;8.23;;
20844;SDS011;10583;49.084;8.646;2022-07-23T03:31:00;7.50;;;7.50;;
20844;SDS011;10583;49.084;8.646;2022-07-23T03:33:27;7.50;;;7.50;;
20844;SDS011;10583;49.084;8.646;2022-07-23T03:35:54;7.57;;;7.57;;
20844;SDS011;10583;49.084;8.646;2022-07-23T03:38:20;7.45;;;7.45;;
20844;SDS011;10583;49.084;8.646;2022-07-23T03:40:48;7.17;;;7.17;;
20844;SDS011;10583;49.084;8.646;2022-07-23T03:43:15;7.65;;;7.65;;
20844;SDS011;10583;49.084;8.646;2022-07-23T03:45:42;7.47;;;7.47;;
20844;SDS011;10583;49.084;8.646;2022-07-23T03:48:08;7.72;;;7.72;;
20844;SDS011;10583;49.084;8.646;2022-07-23T03:50:35;8.03;;;8.03;;
20844;SDS011;10583;49.084;8.646;2022-07-23T03:53:02;7.63;;;7.63;;
20844;SDS011;10583;49.084;8.646;2022-07-23T03:55:29;8.00;;;8.00;;
20844;SDS011;10583;49.084;8.646;2022-07-23T03:57:57;8.00;;;8.00;;
20844;SDS011;10583;49.084;8.646;2022-07-23T04:00:23;8.77;;;8.77;;
20844;SDS011;10583;49.084;8.646;2022-07-23T04:02:50;8.90;;;8.90;;
20844;SDS011;10583;49.084;8.646;2022-07-23T04:05:16;7.73;;;7.73;;
20844;SDS011;10583;49.084;8.646;2022-07-23T04:07:43;7.67;;;7.67;;
20844;SDS011;10583;49.084;8.646;2022-07-23T04:10:10;7.70;;;7.70;;
20844;SDS011;10583;49.084;8.646;2022-07-23T04:12:37;7.17;;;7.17;;
20844;SDS011;10583;49.084;8.646;2022-07-23T04:15:06;7.03;;;7.03;;
20844;SDS011;10583;49.084;8.646;2022-07-23T04:17:34;7.63;;;7.63;;
20844;SDS011;10583;49.084;8.646;2022-07-23T04:20:01;7.37;;;7.37;;
20844;SDS011;10583;49.084;8.646;2022-07-23T04:22:28;7.37;;;7.37;;
20844;SDS011;10583;49.084;8.646;2022-07-23T04:24:54;6.82;;;6.82;;
20844;SDS011;10583;49.084;8.646;2022-07-23T04:27:21;7.28;;;7.28;;
20844;SDS011;10583;49.084;8.646;2022-07-23T04:29:48;7.20;;;7.20;;
20844;SDS011;10583;49.084;8.646;2022-07-23T04:32:16;7.18;;;7.18;;
20844;SDS011;10583;49.084;8.646;2022-07-23T04:34:42;7.57;;;7.57;;
20844;SDS011;10583;49.084;8.646;2022-07-23T04:37:09;8.00;;;8.00;;
20844;SDS011;10583;49.084;8.646;2022-07-23T04:39:36;7.10;;;7.10;;
20844;SDS011;10583;49.084;8.646;2022-07-23T04:42:02;7.70;;;7.70;;
20844;SDS011;10583;49.084;8.646;2022-07-23T04:44:29;7.95;;;7.95;;
20844;SDS011;10583;49.084;8.646;2022-07-23T04:46:56;7.18;;;7.18;;
20844;SDS011;10583;49.084;8.646;2022-07-23T04:49:24;8.30;;;8.30;;
20844;SDS011;10583;49.084;8.646;2022-07-23T04:51:51;7.93;;;7.93;;
20844;SDS011;10583;49.084;8.646;2022-07-23T04:54:17;8.85;;;8.85;;
20844;SDS011;10583;49.084;8.646;2022-07-23T04:56:44;7.60;;;7.60;;
20844;SDS011;10583;49.084;8.646;2022-07-23T04:59:11;7.88;;;7.88;;
20844;SDS011;10583;49.084;8.646;2022-07-23T05:01:37;8.15;;;8.15;;
20844;SDS011;10583;49.084;8.646;2022-07-23T05:04:04;7.78;;;7.78;;
20844;SDS011;10583;49.084;8.646;2022-07-23T05:06:32;8.13;;;8.13;;
20844;SDS011;10583;49.084;8.646;2022-07-23T05:08:59;7.70;;;7.70;;
20844;SDS011;10583;49.084;8.646;2022-07-23T05:11:25;8.10;;;8.10;;
20844;SDS011;10583;49.084;8.646;2022-07-23T05:13:52;8.02;;;8.02;;
20844;SDS011;10583;49.084;8.646;2022-07-23T05:16:19;6.40;;;6.40;;
20844;SDS011;10583;49.084;8.646;2022-07-23T05:18:46;5.72;;;5.72;;
20844;SDS011;10583;49.084;8.646;2022-07-23T05:21:12;5.68;;;5.68;;
20844;SDS011;10583;49.084;8.646;2022-07-23T05:23:40;6.05;;;6.05;;
20844;SDS011;10583;49.084;8.646;2022-07-23T05:26:07;5.95;;;5.95;;
20844;SDS011;10583;49.084;8.646;2022-07-23T05:28:34;6.38;;;6.38;;
20844;SDS011;10583;49.084;8.646;2022-07-23T05:31:00;7.78;;;7.78;;
20844;SDS011;10583;49.084;8.646;2022-07-23T05:33:28;8.27;;;8.27;;
20844;SDS011;10583;49.084;8.646;2022-07-23T05:35:59;8.60;;;8.60;;
20844;SDS011;10583;49.084;8.646;2022-07-23T05:38:27;8.33;;;8.33;;
20844;SDS011;10583;49.084;8.646;2022-07-23T05:40:55;7.53;;;7.53;;
20844;SDS011;10583;49.084;8.646;2022-07-23T05:43:22;7.97;;;7.97;;
20844;SDS011;10583;49.084;8.646;2022-07-23T05:45:49;8.80;;;8.80;;
20844;SDS011;10583;49.084;8.646;2022-07-23T05:48:16;7.80;;;7.80;;
20844;SDS011;10583;49.084;8.646;2022-07-23T05:50:42;8.82;;;8.82;;
20844;SDS011;10583;49.084;8.646;2022-07-23T05:53:09;8.50;;;8.50;;
20844;SDS011;10583;49.084;8.646;2022-07-23T05:55:36;7.70;;;7.70;;
20844;SDS011;10583;49.084;8.646;2022-07-23T05:58:04;7.78;;;7.78;;
20844;SDS011;10583;49.084;8.646;2022-07-23T06:00:31;7.68;;;7.68;;
20844;SDS011;10583;49.084;8.646;2022-07-23T06:02:57;7.10;;;7.10;;
20844;SDS011;10583;49.084;8.646;2022-07-23T06:05:24;7.05;;;7.05;;
20844;SDS011;10583;49.084;8.646;2022-07-23T06:07:51;7.20;;;7.20;;
20844;SDS011;10583;49.084;8.646;2022-07-23T06:10:18;6.85;;;6.85;;
20844;SDS011;10583;49.084;8.646;2022-07-23T06:12:45;7.25;;;7.25;;
20844;SDS011;10583;49.084;8.646;2022-07-23T06:15:13;8.35;;;8.32;;
20844;SDS011;10583;49.084;8.646;2022-07-23T06:17:40;9.88;;;9.88;;
20844;SDS011;10583;49.084;8.646;2022-07-23T06:20:07;9.52;;;9.52;;
20844;SDS011;10583;49.084;8.646;2022-07-23T06:22:35;9.57;;;9.57;;
20844;SDS011;10583;49.084;8.646;2022-07-23T06:25:03;8.10;;;8.10;;
20844;SDS011;10583;49.084;8.646;2022-07-23T06:27:30;8.55;;;8.55;;
20844;SDS011;10583;49.084;8.646;2022-07-23T06:29:57;10.13;;;10.13;;
20844;SDS011;10583;49.084;8.646;2022-07-23T06:32:24;9.98;;;9.98;;
20844;SDS011;10583;49.084;8.646;2022-07-23T06:34:51;11.33;;;11.33;;
20844;SDS011;10583;49.084;8.646;2022-07-23T06:37:20;9.60;;;9.60;;
20844;SDS011;10583;49.084;8.646;2022-07-23T06:39:47;9.20;;;9.20;;
20844;SDS011;10583;49.084;8.646;2022-07-23T06:42:13;8.35;;;8.35;;
20844;SDS011;10583;49.084;8.646;2022-07-23T06:44:40;8.93;;;8.93;;
20844;SDS011;10583;49.084;8.646;2022-07-23T06:47:07;8.40;;;8.40;;
20844;SDS011;10583;49.084;8.646;2022-07-23T06:49:35;9.03;;;9.03;;
20844;SDS011;10583;49.084;8.646;2022-07-23T06:52:02;8.20;;;8.20;;
20844;SDS011;10583;49.084;8.646;2022-07-23T06:54:29;8.00;;;8.00;;
20844;SDS011;10583;49.084;8.646;2022-07-23T06:56:55;8.30;;;8.30;;
20844;SDS011;10583;49.084;8.646;2022-07-23T06:59:22;7.95;;;7.95;;
20844;SDS011;10583;49.084;8.646;2022-07-23T07:01:49;7.57;;;7.57;;
20844;SDS011;10583;49.084;8.646;2022-07-23T07:04:15;8.15;;;8.15;;
20844;SDS011;10583;49.084;8.646;2022-07-23T07:06:43;7.93;;;7.93;;
20844;SDS011;10583;49.084;8.646;2022-07-23T07:09:10;8.68;;;8.68;;
20844;SDS011;10583;49.084;8.646;2022-07-23T07:11:37;8.07;;;8.07;;
20844;SDS011;10583;49.084;8.646;2022-07-23T07:14:03;9.15;;;9.15;;
20844;SDS011;10583;49.084;8.646;2022-07-23T07:16:30;7.75;;;7.75;;
20844;SDS011;10583;49.084;8.646;2022-07-23T07:18:57;8.85;;;8.85;;
20844;SDS011;10583;49.084;8.646;2022-07-23T07:21:23;8.15;;;8.15;;
20844;SDS011;10583;49.084;8.646;2022-07-23T07:23:51;7.88;;;7.88;;
20844;SDS011;10583;49.084;8.646;2022-07-23T07:26:18;6.88;;;6.88;;
20844;SDS011;10583;49.084;8.646;2022-07-23T07:28:44;7.22;;;7.22;;
20844;SDS011;10583;49.084;8.646;2022-07-23T07:31:11;6.65;;;6.65;;
20844;SDS011;10583;49.084;8.646;2022-07-23T07:33:40;6.95;;;6.95;;
20844;SDS011;10583;49.084;8.646;2022-07-23T07:36:07;6.40;;;6.40;;
20844;SDS011;10583;49.084;8.646;2022-07-23T07:38:34;6.85;;;6.85;;
20844;SDS011;10583;49.084;8.646;2022-07-23T07:41:02;6.40;;;6.40;;
20844;SDS011;10583;49.084;8.646;2022-07-23T07:43:28;6.80;;;6.80;;
20844;SDS011;10583;49.084;8.646;2022-07-23T07:45:55;6.63;;;6.63;;
20844;SDS011;10583;49.084;8.646;2022-07-23T07:48:22;7.00;;;7.00;;
20844;SDS011;10583;49.084;8.646;2022-07-23T07:50:48;6.80;;;6.80;;
20844;SDS011;10583;49.084;8.646;2022-07-23T07:53:15;7.03;;;7.03;;
20844;SDS011;10583;49.084;8.646;2022-07-23T07:55:42;7.25;;;7.25;;
20844;SDS011;10583;49.084;8.646;2022-07-23T07:58:10;6.40;;;6.40;;
20844;SDS011;10583;49.084;8.646;2022-07-23T08:00:36;6.32;;;6.32;;
20844;SDS011;10583;49.084;8.646;2022-07-23T08:03:03;6.97;;;6.97;;
20844;SDS011;10583;49.084;8.646;2022-07-23T08:05:30;6.93;;;6.93;;
20844;SDS011;10583;49.084;8.646;2022-07-23T08:07:57;6.20;;;6.20;;
20844;SDS011;10583;49.084;8.646;2022-07-23T08:10:24;7.25;;;7.25;;
20844;SDS011;10583;49.084;8.646;2022-07-23T08:12:52;6.95;;;6.95;;
20844;SDS011;10583;49.084;8.646;2022-07-23T08:15:22;6.85;;;6.85;;
20844;SDS011;10583;49.084;8.646;2022-07-23T08:17:50;7.20;;;7.20;;
20844;SDS011;10583;49.084;8.646;2022-07-23T08:20:18;6.32;;;6.32;;
20844;SDS011;10583;49.084;8.646;2022-07-23T08:22:47;6.80;;;6.80;;
20844;SDS011;10583;49.084;8.646;2022-07-23T08:25:15;6.03;;;6.03;;
20844;SDS011;10583;49.084;8.646;2022-07-23T08:27:42;6.68;;;6.68;;
20844;SDS011;10583;49.084;8.646;2022-07-23T08:30:09;6.38;;;6.38;;
20844;SDS011;10583;49.084;8.646;2022-07-23T08:32:54;5.88;;;5.88;;
20844;SDS011;10583;49.084;8.646;2022-07-23T08:35:22;5.55;;;5.55;;
20844;SDS011;10583;49.084;8.646;2022-07-23T08:37:50;6.32;;;6.32;;
20844;SDS011;10583;49.084;8.646;2022-07-23T08:40:17;6.05;;;6.05;;
20844;SDS011;10583;49.084;8.646;2022-07-23T08:42:45;6.28;;;6.28;;
20844;SDS011;10583;49.084;8.646;2022-07-23T08:45:15;6.78;;;6.78;;
20844;SDS011;10583;49.084;8.646;2022-07-23T08:47:45;6.20;;;6.20;;
20844;SDS011;10583;49.084;8.646;2022-07-23T08:50:16;6.05;;;6.05;;
20844;SDS011;10583;49.084;8.646;2022-07-23T08:52:44;6.00;;;6.00;;
20844;SDS011;10583;49.084;8.646;2022-07-23T08:55:11;5.97;;;5.97;;
20844;SDS011;10583;49.084;8.646;2022-07-23T08:57:38;6.22;;;6.22;;
20844;SDS011;10583;49.084;8.646;2022-07-23T09:00:05;6.53;;;6.53;;
20844;SDS011;10583;49.084;8.646;2022-07-23T09:02:38;6.82;;;6.82;;
20844;SDS011;10583;49.084;8.646;2022-07-23T09:05:06;5.97;;;5.97;;
20844;SDS011;10583;49.084;8.646;2022-07-23T09:07:35;6.03;;;6.03;;
20844;SDS011;10583;49.084;8.646;2022-07-23T09:10:05;6.40;;;6.40;;
20844;SDS011;10583;49.084;8.646;2022-07-23T09:12:34;6.22;;;6.22;;
20844;SDS011;10583;49.084;8.646;2022-07-23T09:15:04;6.55;;;6.55;;
20844;SDS011;10583;49.084;8.646;2022-07-23T09:17:36;6.38;;;6.38;;
20844;SDS011;10583;49.084;8.646;2022-07-23T09:20:08;6.30;;;6.30;;
20844;SDS011;10583;49.084;8.646;2022-07-23T09:22:37;6.15;;;6.15;;
20844;SDS011;10583;49.084;8.646;2022-07-23T09:25:09;6.22;;;6.22;;
20844;SDS011;10583;49.084;8.646;2022-07-23T09:27:45;6.75;;;6.75;;
20844;SDS011;10583;49.084;8.646;2022-07-23T09:30:15;5.72;;;5.72;;
20844;SDS011;10583;49.084;8.646;2022-07-23T09:32:41;6.70;;;6.70;;
20844;SDS011;10583;49.084;8.646;2022-07-23T09:35:08;6.75;;;6.75;;
20844;SDS011;10583;49.084;8.646;2022-07-23T09:37:35;6.50;;;6.50;;
20844;SDS011;10583;49.084;8.646;2022-07-23T09:40:03;6.13;;;6.13;;
20844;SDS011;10583;49.084;8.646;2022-07-23T09:42:31;6.30;;;6.30;;
20844;SDS011;10583;49.084;8.646;2022-07-23T09:44:59;5.85;;;5.85;;
20844;SDS011;10583;49.084;8.646;2022-07-23T09:47:26;6.93;;;6.93;;
20844;SDS011;10583;49.084;8.646;2022-07-23T09:49:57;7.00;;;7.00;;
20844;SDS011;10583;49.084;8.646;2022-07-23T09:52:26;7.63;;;7.63;;
20844;SDS011;10583;49.084;8.646;2022-07-23T09:54:58;6.82;;;6.82;;
20844;SDS011;10583;49.084;8.646;2022-07-23T09:57:26;7.15;;;7.15;;
20844;SDS011;10583;49.084;8.646;2022-07-23T09:59:53;6.82;;;6.82;;
20844;SDS011;10583;49.084;8.646;2022-07-23T10:02:24;7.40;;;7.40;;
20844;SDS011;10583;49.084;8.646;2022-07-23T10:04:52;7.53;;;7.53;;
20844;SDS011;10583;49.084;8.646;2022-07-23T10:07:20;7.47;;;7.47;;
20844;SDS011;10583;49.084;8.646;2022-07-23T10:09:48;7.65;;;7.65;;
20844;SDS011;10583;49.084;8.646;2022-07-23T10:12:19;8.00;;;8.00;;
20844;SDS011;10583;49.084;8.646;2022-07-23T10:15:04;7.20;;;7.20;;
20844;SDS011;10583;49.084;8.646;2022-07-23T10:17:32;8.73;;;8.73;;
20844;SDS011;10583;49.084;8.646;2022-07-23T10:19:59;8.90;;;8.90;;
20844;SDS011;10583;49.084;8.646;2022-07-23T10:22:26;7.55;;;7.55;;
20844;SDS011;10583;49.084;8.646;2022-07-23T10:25:04;8.23;;;8.23;;
20844;SDS011;10583;49.084;8.646;2022-07-23T10:27:42;7.55;;;7.55;;
20844;SDS011;10583;49.084;8.646;2022-07-23T10:30:16;7.85;;;7.85;;
20844;SDS011;10583;49.084;8.646;2022-07-23T10:32:50;7.13;;;7.13;;
20844;SDS011;10583;49.084;8.646;2022-07-23T10:35:26;7.13;;;7.13;;
20844;SDS011;10583;49.084;8.646;2022-07-23T10:38:02;7.20;;;7.20;;
20844;SDS011;10583;49.084;8.646;2022-07-23T10:40:37;7.82;;;7.82;;
20844;SDS011;10583;49.084;8.646;2022-07-23T10:43:20;6.35;;;6.35;;
20844;SDS011;10583;49.084;8.646;2022-07-23T10:45:47;8.00;;;8.00;;
20844;SDS011;10583;49.084;8.646;2022-07-23T10:48:15;6.70;;;6.70;;
20844;SDS011;10583;49.084;8.646;2022-07-23T10:50:44;6.70;;;6.70;;
20844;SDS011;10583;49.084;8.646;2022-07-23T10:53:26;5.32;;;5.32;;
20844;SDS011;10583;49.084;8.646;2022-07-23T10:55:53;6.03;;;6.03;;
20844;SDS011;10583;49.084;8.646;2022-07-23T10:58:22;6.05;;;6.05;;
20844;SDS011;10583;49.084;8.646;2022-07-23T11:04:01;5.30;;;5.30;;
20844;SDS011;10583;49.084;8.646;2022-07-23T11:09:38;5.40;;;5.40;;
20844;SDS011;10583;49.084;8.646;2022-07-23T11:15:05;5.03;;;5.03;;
20844;SDS011;10583;49.084;8.646;2022-07-23T11:17:34;5.22;;;5.22;;
20844;SDS011;10583;49.084;8.646;2022-07-23T11:22:54;5.45;;;5.45;;
20844;SDS011;10583;49.084;8.646;2022-07-23T11:25:29;4.95;;;4.95;;
20844;SDS011;10583;49.084;8.646;2022-07-23T11:28:13;5.13;;;5.13;;
20844;SDS011;10583;49.084;8.646;2022-07-23T11:30:43;4.85;;;4.85;;
20844;SDS011;10583;49.084;8.646;2022-07-23T11:33:17;4.75;;;4.75;;
20844;SDS011;10583;49.084;8.646;2022-07-23T11:35:46;5.75;;;5.75;;
20844;SDS011;10583;49.084;8.646;2022-07-23T11:38:15;5.80;;;5.80;;
20844;SDS011;10583;49.084;8.646;2022-07-23T11:40:43;5.50;;;5.50;;
20844;SDS011;10583;49.084;8.646;2022-07-23T11:43:11;5.70;;;5.70;;
20844;SDS011;10583;49.084;8.646;2022-07-23T11:45:39;5.78;;;5.78;;
20844;SDS011;10583;49.084;8.646;2022-07-23T11:48:15;6.50;;;6.50;;
20844;SDS011;10583;49.084;8.646;2022-07-23T11:50:43;5.60;;;5.60;;
20844;SDS011;10583;49.084;8.646;2022-07-23T11:53:10;5.90;;;5.90;;
20844;SDS011;10583;49.084;8.646;2022-07-23T11:55:36;6.45;;;6.45;;
20844;SDS011;10583;49.084;8.646;2022-07-23T11:58:04;6.40;;;6.40;;
20844;SDS011;10583;49.084;8.646;2022-07-23T12:00:31;6.20;;;6.20;;
20844;SDS011;10583;49.084;8.646;2022-07-23T12:02:59;6.50;;;6.50;;
20844;SDS011;10583;49.084;8.646;2022-07-23T12:05:28;6.35;;;6.35;;
20844;SDS011;10583;49.084;8.646;2022-07-23T12:07:58;6.53;;;6.53;;
20844;SDS011;10583;49.084;8.646;2022-07-23T12:10:26;6.75;;;6.75;;
20844;SDS011;10583;49.084;8.646;2022-07-23T12:12:54;6.82;;;6.82;;
20844;SDS011;10583;49.084;8.646;2022-07-23T12:15:22;6.35;;;6.35;;
20844;SDS011;10583;49.084;8.646;2022-07-23T12:17:51;7.07;;;7.07;;
20844;SDS011;10583;49.084;8.646;2022-07-23T12:20:20;6.25;;;6.25;;
20844;SDS011;10583;49.084;8.646;2022-07-23T12:22:50;6.82;;;6.82;;
20844;SDS011;10583;49.084;8.646;2022-07-23T12:25:19;6.60;;;6.60;;
20844;SDS011;10583;49.084;8.646;2022-07-23T12:27:57;6.05;;;6.05;;
20844;SDS011;10583;49.084;8.646;2022-07-23T12:30:27;6.25;;;6.25;;
20844;SDS011;10583;49.084;8.646;2022-07-23T12:32:55;6.13;;;6.13;;
20844;SDS011;10583;49.084;8.646;2022-07-23T12:35:29;6.25;;;6.25;;
20844;SDS011;10583;49.084;8.646;2022-07-23T12:38:00;6.25;;;6.25;;
20844;SDS011;10583;49.084;8.646;2022-07-23T12:40:29;6.57;;;6.57;;
20844;SDS011;10583;49.084;8.646;2022-07-23T12:42:58;6.30;;;6.30;;
20844;SDS011;10583;49.084;8.646;2022-07-23T12:45:28;7.00;;;7.00;;
20844;SDS011;10583;49.084;8.646;2022-07-23T12:48:07;6.43;;;6.43;;
20844;SDS011;10583;49.084;8.646;2022-07-23T12:50:35;6.68;;;6.68;;
20844;SDS011;10583;49.084;8.646;2022-07-23T12:53:06;6.93;;;6.93;;
20844;SDS011;10583;49.084;8.646;2022-07-23T12:55:35;6.70;;;6.70;;
20844;SDS011;10583;49.084;8.646;2022-07-23T12:58:03;6.50;;;6.50;;
20844;SDS011;10583;49.084;8.646;2022-07-23T13:00:31;6.75;;;6.75;;
20844;SDS011;10583;49.084;8.646;2022-07-23T13:02:58;6.75;;;6.75;;
20844;SDS011;10583;49.084;8.646;2022-07-23T13:05:25;6.72;;;6.72;;
20844;SDS011;10583;49.084;8.646;2022-07-23T13:07:52;6.72;;;6.72;;
20844;SDS011;10583;49.084;8.646;2022-07-23T13:10:19;6.30;;;6.30;;
20844;SDS011;10583;49.084;8.646;2022-07-23T13:12:46;5.95;;;5.95;;
20844;SDS011;10583;49.084;8.646;2022-07-23T13:15:13;6.20;;;6.20;;
20844;SDS011;10583;49.084;8.646;2022-07-23T13:17:39;6.10;;;6.10;;
20844;SDS011;10583;49.084;8.646;2022-07-23T13:20:09;5.72;;;5.72;;
20844;SDS011;10583;49.084;8.646;2022-07-23T13:22:36;6.43;;;6.43;;
20844;SDS011;10583;49.084;8.646;2022-07-23T13:25:03;6.22;;;6.22;;
20844;SDS011;10583;49.084;8.646;2022-07-23T13:27:32;6.53;;;6.53;;
20844;SDS011;10583;49.084;8.646;2022-07-23T13:29:59;6.45;;;6.45;;
20844;SDS011;10583;49.084;8.646;2022-07-23T13:32:25;6.50;;;6.50;;
20844;SDS011;10583;49.084;8.646;2022-07-23T13:34:52;5.80;;;5.80;;
20844;SDS011;10583;49.084;8.646;2022-07-23T13:37:19;6.38;;;6.38;;
20844;SDS011;10583;49.084;8.646;2022-07-23T13:39:46;6.68;;;6.68;;
20844;SDS011;10583;49.084;8.646;2022-07-23T13:42:12;6.30;;;6.30;;
20844;SDS011;10583;49.084;8.646;2022-07-23T13:44:40;5.47;;;5.47;;
20844;SDS011;10583;49.084;8.646;2022-07-23T13:47:07;6.00;;;6.00;;
20844;SDS011;10583;49.084;8.646;2022-07-23T13:49:34;7.18;;;7.18;;
20844;SDS011;10583;49.084;8.646;2022-07-23T13:52:01;6.35;;;6.35;;
20844;SDS011;10583;49.084;8.646;2022-07-23T13:54:28;6.80;;;6.80;;
20844;SDS011;10583;49.084;8.646;2022-07-23T13:56:54;6.70;;;6.70;;
20844;SDS011;10583;49.084;8.646;2022-07-23T13:59:21;6.55;;;6.55;;
20844;SDS011;10583;49.084;8.646;2022-07-23T14:01:49;5.95;;;5.95;;
20844;SDS011;10583;49.084;8.646;2022-07-23T14:04:16;6.28;;;6.28;;
20844;SDS011;10583;49.084;8.646;2022-07-23T14:06:43;6.05;;;6.05;;
20844;SDS011;10583;49.084;8.646;2022-07-23T14:09:09;5.95;;;5.95;;
20844;SDS011;10583;49.084;8.646;2022-07-23T14:11:36;6.30;;;6.30;;
20844;SDS011;10583;49.084;8.646;2022-07-23T14:14:04;5.80;;;5.80;;
20844;SDS011;10583;49.084;8.646;2022-07-23T14:16:30;6.32;;;6.32;;
20844;SDS011;10583;49.084;8.646;2022-07-23T14:18:58;6.47;;;6.47;;
20844;SDS011;10583;49.084;8.646;2022-07-23T14:21:25;6.05;;;6.05;;
20844;SDS011;10583;49.084;8.646;2022-07-23T14:23:52;6.32;;;6.32;;
20844;SDS011;10583;49.084;8.646;2022-07-23T14:26:18;6.10;;;6.10;;
20844;SDS011;10583;49.084;8.646;2022-07-23T14:28:45;6.20;;;6.20;;
20844;SDS011;10583;49.084;8.646;2022-07-23T14:31:12;6.35;;;6.35;;
20844;SDS011;10583;49.084;8.646;2022-07-23T14:33:38;6.00;;;6.00;;
20844;SDS011;10583;49.084;8.646;2022-07-23T14:36:06;6.57;;;6.57;;
20844;SDS011;10583;49.084;8.646;2022-07-23T14:38:33;5.57;;;5.57;;
20844;SDS011;10583;49.084;8.646;2022-07-23T14:41:00;6.25;;;6.25;;
20844;SDS011;10583;49.084;8.646;2022-07-23T14:43:26;6.70;;;6.70;;
20844;SDS011;10583;49.084;8.646;2022-07-23T14:45:53;5.80;;;5.80;;
20844;SDS011;10583;49.084;8.646;2022-07-23T14:48:20;5.97;;;5.97;;
20844;SDS011;10583;49.084;8.646;2022-07-23T14:50:47;5.97;;;5.97;;
20844;SDS011;10583;49.084;8.646;2022-07-23T14:53:15;6.22;;;6.22;;
20844;SDS011;10583;49.084;8.646;2022-07-23T14:55:42;6.82;;;6.82;;
20844;SDS011;10583;49.084;8.646;2022-07-23T14:58:09;6.28;;;6.28;;
20844;SDS011;10583;49.084;8.646;2022-07-23T15:00:36;6.18;;;6.18;;
20844;SDS011;10583;49.084;8.646;2022-07-23T15:03:02;5.85;;;5.85;;